Terminal Aerodrome Forecast
Issued by NWS

Home | Current Version | Previous Version | Text Only | Print | Product List | Glossary Off
Versions: 1 2 3 4 5 6 7 8 9 10 11 12 13

000
FTUS43 KIWX 072300
TAFSBN
TAF
KSBN 072328Z 0800/0824 31006KT P6SM SKC
     FM080400 22007KT P6SM SCT030
      TEMPO 0812/0816 5SM -SHRA BR BKN030
     FM081600 28014G22KT P6SM SCT035=

USA.gov is the U.S. government's official web portal to all federal, state and local government web resources and services.